Corewise Ol — 3FEX6 — position and weather

sailwx.info

Track history (hours):
 
Tides and Currents Weather Stations Pressure Air Temp Water Temp Dewpoint Dewpoint Depression Visibility Wind Speed Wind Dir Waves Ship Positions

Corewise Ol

Last reported at 2018-Feb-17 09:19 UTC. Time now 2018-Feb-17 19:43 UTC.
Position N 36°24' W 026°01'.

Length 178 m; draft 8.9 m.

Type: Cargo ship. MMSI: 352292000.

Date/timePositionNaut miles runAvg speedWind from/ knotsBaromVisibWave heightAir tempDewpointWater temp
2018-Feb-17 09:19N 36°24' W 026°01'713.7
2018-Feb-17 08:49N 36°25' W 025°52'413.6
2018-Feb-17 08:30N 36°26' W 025°47'713.9
2018-Feb-17 08:00N 36°26' W 025°38'714.0
2018-Feb-17 07:31N 36°27' W 025°30'713.9
2018-Feb-17 07:00N 36°28' W 025°21'713.9
2018-Feb-17 06:30N 36°29' W 025°13'713.9
2018-Feb-17 06:01N 36°30' W 025°04'713.6
2018-Feb-17 05:30N 36°32' W 024°56'714.0
2018-Feb-17 05:00N 36°36' W 024°49'713.9
2018-Feb-17 04:31N 36°40' W 024°42'714.0
2018-Feb-17 04:00N 36°44' W 024°35'714.0
2018-Feb-17 03:30N 36°48' W 024°28'714.0
2018-Feb-17 03:00N 36°52' W 024°20'714.0
2018-Feb-17 02:30N 36°56' W 024°13'713.9
2018-Feb-17 02:00N 37°01' W 024°07'713.9
2018-Feb-17 01:30N 37°05' W 023°60'713.9
2018-Feb-17 01:00N 37°09' W 023°52'714.0
2018-Feb-17 00:30N 37°13' W 023°45'713.8
2018-Feb-17 00:00N 37°17' W 023°38'  
2018-Feb-12 20:25N 49°43' W 003°36'512.7
2018-Feb-12 20:00N 49°46' W 003°29'612.4
2018-Feb-12 19:30N 49°49' W 003°21'712.2
2018-Feb-12 18:57N 49°53' W 003°12'511.9
2018-Feb-12 18:30N 49°55' W 003°05'611.7
2018-Feb-12 18:01N 49°58' W 002°56'711.6
2018-Feb-12 17:25N 49°59' W 002°46'511.6
2018-Feb-12 17:00N 50°01' W 002°39'612.0
2018-Feb-12 16:28N 50°02' W 002°29'1512.4
2018-Feb-12 15:18N 50°06' W 002°07'413.4
2018-Feb-12 15:00N 50°07' W 002°02'713.6
2018-Feb-12 14:31N 50°09' W 001°52'714.5
2018-Feb-12 14:00N 50°11' W 001°41'815.0
2018-Feb-12 13:30N 50°13' W 001°29'815.4
2018-Feb-12 13:00N 50°15' W 001°18'3515.5
2018-Feb-12 10:44N 50°25' W 000°24'314.6
2018-Feb-12 10:30N 50°26' W 000°19'714.3
2018-Feb-12 10:00N 50°28' W 000°08'713.9
2018-Feb-12 09:30N 50°29' E 000°02'713.5
2018-Feb-12 09:00N 50°31' E 000°12'713.2
2018-Feb-12 08:31N 50°33' E 000°22'613.0
2018-Feb-12 08:00N 50°34' E 000°32'713.0
2018-Feb-12 07:30N 50°39' E 000°40'713.2
2018-Feb-12 07:00N 50°43' E 000°48'713.5
2018-Feb-12 06:30N 50°47' E 000°56'714.1
2018-Feb-12 06:00N 50°52' E 001°05'715.0
2018-Feb-12 05:30N 50°56' E 001°14'815.4
2018-Feb-12 05:00N 51°02' E 001°23'816.2
2018-Feb-12 04:30N 51°07' E 001°33'816.0
2018-Feb-12 04:00N 51°12' E 001°43'815.4
2018-Feb-12 03:30N 51°18' E 001°50'714.7
2018-Feb-12 03:00N 51°24' E 001°56'714.0
2018-Feb-12 02:30N 51°30' E 002°02'713.5
2018-Feb-12 02:00N 51°35' E 002°09'713.0
2018-Feb-12 01:30N 51°40' E 002°17'612.7
2018-Feb-12 01:00N 51°44' E 002°24'712.6
2018-Feb-12 00:26N 51°50' E 002°32'4111.2
2018-Feb-11 20:43N 52°03' E 003°35'311.9
2018-Feb-11 20:31N 52°03' E 003°39'612.2
2018-Feb-11 20:01N 52°03' E 003°49'5 9.7
2018-Feb-11 19:31N 52°01' E 003°57'3 5.4
2018-Feb-11 19:00N 52°00' E 004°01'3 6.7
2018-Feb-11 18:31N 51°58' E 004°04'1 1.5
2018-Feb-11 17:59N 51°58' E 004°03'0 0.0
2018-Feb-11 17:29N 51°58' E 004°03'0 0.0
2018-Feb-11 16:56N 51°58' E 004°03'0 0.0
2018-Feb-11 16:29N 51°58' E 004°03'0 0.0
2018-Feb-11 15:59N 51°58' E 004°03'0 0.0
2018-Feb-11 15:29N 51°58' E 004°03'0 0.0
2018-Feb-11 14:59N 51°58' E 004°03'0 0.0
2018-Feb-11 14:29N 51°58' E 004°03'0 0.0
2018-Feb-11 13:59N 51°58' E 004°03'0 0.0
2018-Feb-11 13:29N 51°58' E 004°03'0 0.0
2018-Feb-11 12:59N 51°58' E 004°03'0 0.0
2018-Feb-11 12:29N 51°58' E 004°03'0 0.0
2018-Feb-11 11:59N 51°58' E 004°03'0 0.0
2018-Feb-11 11:29N 51°58' E 004°03'0 0.0
2018-Feb-11 10:59N 51°58' E 004°03'0 0.0
2018-Feb-11 10:29N 51°58' E 004°03'0 0.0
2018-Feb-11 09:59N 51°58' E 004°03'0 0.0
2018-Feb-11 09:29N 51°58' E 004°03'0 0.0
2018-Feb-11 08:59N 51°58' E 004°03'0 0.0
2018-Feb-11 08:29N 51°58' E 004°03'0 0.0
2018-Feb-11 07:59N 51°58' E 004°03'0 0.0
2018-Feb-11 07:26N 51°58' E 004°03'0 0.0
2018-Feb-11 06:59N 51°58' E 004°03'0 0.0
2018-Feb-11 06:26N 51°58' E 004°03'0 0.0
2018-Feb-11 05:59N 51°58' E 004°03'0 0.0
2018-Feb-11 05:29N 51°58' E 004°03'0 0.0
2018-Feb-11 04:56N 51°58' E 004°03'0 0.0
2018-Feb-11 04:29N 51°58' E 004°03'0 0.0
2018-Feb-11 03:59N 51°58' E 004°03'0 0.0
2018-Feb-11 03:29N 51°58' E 004°03'0 0.0
2018-Feb-11 02:59N 51°58' E 004°03'0 0.0
2018-Feb-11 02:29N 51°58' E 004°03'0 0.0
2018-Feb-11 01:59N 51°58' E 004°03'0 0.0
2018-Feb-11 01:29N 51°58' E 004°03'0 0.0
2018-Feb-11 00:56N 51°58' E 004°03'0 0.0
2018-Feb-11 00:29N 51°58' E 004°03'0 0.0
2018-Feb-10 23:59N 51°58' E 004°03'0 0.0
2018-Feb-10 23:29N 51°58' E 004°03'0 0.0
2018-Feb-10 22:59N 51°58' E 004°03'0 0.0
2018-Feb-10 22:29N 51°58' E 004°03'0 0.0
2018-Feb-10 21:59N 51°58' E 004°03'0 0.0
2018-Feb-10 21:29N 51°58' E 004°03'0 0.0
2018-Feb-10 20:59N 51°58' E 004°03'0 0.0
2018-Feb-10 20:29N 51°58' E 004°03'0 0.0
2018-Feb-10 19:59N 51°58' E 004°03'0 0.0
2018-Feb-10 19:26N 51°58' E 004°03'0 0.0
2018-Feb-10 18:59N 51°58' E 004°03'0 0.0
2018-Feb-10 18:29N 51°58' E 004°03'0 0.0
2018-Feb-10 17:59N 51°58' E 004°03'0 0.0
2018-Feb-10 17:29N 51°58' E 004°03'0 0.0
2018-Feb-10 16:59N 51°58' E 004°03'0 0.0
2018-Feb-10 16:29N 51°58' E 004°03'0 0.0
2018-Feb-10 15:59N 51°58' E 004°03'0 0.0
2018-Feb-10 15:29N 51°58' E 004°03'0 0.0
2018-Feb-10 14:59N 51°58' E 004°03'0 0.0
2018-Feb-10 14:29N 51°58' E 004°03'0 0.0
2018-Feb-10 13:59N 51°58' E 004°03'0 0.0
2018-Feb-10 13:29N 51°58' E 004°03'0 0.0
2018-Feb-10 12:59N 51°58' E 004°03'0 0.0
2018-Feb-10 12:29N 51°58' E 004°03'0 0.0
2018-Feb-10 11:59N 51°58' E 004°03'0 0.0
2018-Feb-10 11:29N 51°58' E 004°03'0 0.0
2018-Feb-10 10:56N 51°58' E 004°03'0 0.0
2018-Feb-10 10:29N 51°58' E 004°03'0 0.0
2018-Feb-10 09:59N 51°58' E 004°03'0 0.0
2018-Feb-10 09:29N 51°58' E 004°03'0 0.0
2018-Feb-10 08:59N 51°58' E 004°03'0 0.0
2018-Feb-10 08:29N 51°58' E 004°03'0 0.0
2018-Feb-10 07:59N 51°58' E 004°03'0 0.0
2018-Feb-10 07:29N 51°58' E 004°03'0 0.0
2018-Feb-10 06:59N 51°58' E 004°03'0 0.0
2018-Feb-10 06:29N 51°58' E 004°03'0 0.0
2018-Feb-10 05:59N 51°58' E 004°03'0 0.0
2018-Feb-10 05:29N 51°58' E 004°03'0 0.0
2018-Feb-10 04:59N 51°58' E 004°03'0 0.0
2018-Feb-10 04:29N 51°58' E 004°03'0 0.0
2018-Feb-10 03:59N 51°58' E 004°03'0 0.0
2018-Feb-10 03:29N 51°58' E 004°03'0 0.0
2018-Feb-10 02:59N 51°58' E 004°03'0 0.0
2018-Feb-10 02:29N 51°58' E 004°03'0 0.0
2018-Feb-10 01:59N 51°58' E 004°03'0 0.0
2018-Feb-10 01:29N 51°58' E 004°03'0 0.0
2018-Feb-10 00:59N 51°58' E 004°03'0 0.0
2018-Feb-10 00:29N 51°58' E 004°03'0 0.0
2018-Feb-09 23:59N 51°58' E 004°03'0 0.0
2018-Feb-09 23:29N 51°58' E 004°03'0 0.0
2018-Feb-09 22:59N 51°58' E 004°03'0 0.0
2018-Feb-09 22:44N 51°58' E 004°03'0 0.0
2018-Feb-08 01:29N 51°58' E 004°03'0 0.0
2018-Feb-08 00:59N 51°58' E 004°03'0 0.0
2018-Feb-08 00:29N 51°58' E 004°03'0 0.0
2018-Feb-07 23:59N 51°58' E 004°03'0 0.0
2018-Feb-07 23:29N 51°58' E 004°03'0 0.0
2018-Feb-07 22:59N 51°58' E 004°03'0 0.0
2018-Feb-07 22:29N 51°58' E 004°03'0 0.0
2018-Feb-07 21:59N 51°58' E 004°03'0 0.0
2018-Feb-07 21:29N 51°58' E 004°03'0 0.0
2018-Feb-07 09:26N 51°58' E 004°03'  
Track history (hours):
 
Tides and Currents Weather Stations Pressure Air Temp Water Temp Dewpoint Dewpoint Depression Visibility Wind Speed Wind Dir Waves Ship Positions

Corewise Ol

Last reported at 2018-Feb-17 09:19 UTC. Time now 2018-Feb-17 19:43 UTC.
Position N 36°24' W 026°01'.

Length 178 m; draft 8.9 m.

Type: Cargo ship. MMSI: 352292000.

Date/timePositionNaut miles runAvg speedWind from/ knotsBaromVisibWave heightAir tempDewpointWater temp
2018-Feb-17 09:19N 36°24' W 026°01'713.7
2018-Feb-17 08:49N 36°25' W 025°52'413.6
2018-Feb-17 08:30N 36°26' W 025°47'713.9
2018-Feb-17 08:00N 36°26' W 025°38'714.0
2018-Feb-17 07:31N 36°27' W 025°30'713.9
2018-Feb-17 07:00N 36°28' W 025°21'713.9
2018-Feb-17 06:30N 36°29' W 025°13'713.9
2018-Feb-17 06:01N 36°30' W 025°04'713.6
2018-Feb-17 05:30N 36°32' W 024°56'714.0
2018-Feb-17 05:00N 36°36' W 024°49'713.9
2018-Feb-17 04:31N 36°40' W 024°42'714.0
2018-Feb-17 04:00N 36°44' W 024°35'714.0
2018-Feb-17 03:30N 36°48' W 024°28'714.0
2018-Feb-17 03:00N 36°52' W 024°20'714.0
2018-Feb-17 02:30N 36°56' W 024°13'713.9
2018-Feb-17 02:00N 37°01' W 024°07'713.9
2018-Feb-17 01:30N 37°05' W 023°60'713.9
2018-Feb-17 01:00N 37°09' W 023°52'714.0
2018-Feb-17 00:30N 37°13' W 023°45'713.8
2018-Feb-17 00:00N 37°17' W 023°38'  
2018-Feb-12 20:25N 49°43' W 003°36'512.7
2018-Feb-12 20:00N 49°46' W 003°29'612.4
2018-Feb-12 19:30N 49°49' W 003°21'712.2
2018-Feb-12 18:57N 49°53' W 003°12'511.9
2018-Feb-12 18:30N 49°55' W 003°05'611.7
2018-Feb-12 18:01N 49°58' W 002°56'711.6
2018-Feb-12 17:25N 49°59' W 002°46'511.6
2018-Feb-12 17:00N 50°01' W 002°39'612.0
2018-Feb-12 16:28N 50°02' W 002°29'1512.4
2018-Feb-12 15:18N 50°06' W 002°07'413.4
2018-Feb-12 15:00N 50°07' W 002°02'713.6
2018-Feb-12 14:31N 50°09' W 001°52'714.5
2018-Feb-12 14:00N 50°11' W 001°41'815.0
2018-Feb-12 13:30N 50°13' W 001°29'815.4
2018-Feb-12 13:00N 50°15' W 001°18'3515.5
2018-Feb-12 10:44N 50°25' W 000°24'314.6
2018-Feb-12 10:30N 50°26' W 000°19'714.3
2018-Feb-12 10:00N 50°28' W 000°08'713.9
2018-Feb-12 09:30N 50°29' E 000°02'713.5
2018-Feb-12 09:00N 50°31' E 000°12'713.2
2018-Feb-12 08:31N 50°33' E 000°22'613.0
2018-Feb-12 08:00N 50°34' E 000°32'713.0
2018-Feb-12 07:30N 50°39' E 000°40'713.2
2018-Feb-12 07:00N 50°43' E 000°48'713.5
2018-Feb-12 06:30N 50°47' E 000°56'714.1
2018-Feb-12 06:00N 50°52' E 001°05'715.0
2018-Feb-12 05:30N 50°56' E 001°14'815.4
2018-Feb-12 05:00N 51°02' E 001°23'816.2
2018-Feb-12 04:30N 51°07' E 001°33'816.0
2018-Feb-12 04:00N 51°12' E 001°43'815.4
2018-Feb-12 03:30N 51°18' E 001°50'714.7
2018-Feb-12 03:00N 51°24' E 001°56'714.0
2018-Feb-12 02:30N 51°30' E 002°02'713.5
2018-Feb-12 02:00N 51°35' E 002°09'713.0
2018-Feb-12 01:30N 51°40' E 002°17'612.7
2018-Feb-12 01:00N 51°44' E 002°24'712.6
2018-Feb-12 00:26N 51°50' E 002°32'4111.2
2018-Feb-11 20:43N 52°03' E 003°35'311.9
2018-Feb-11 20:31N 52°03' E 003°39'612.2
2018-Feb-11 20:01N 52°03' E 003°49'5 9.7
2018-Feb-11 19:31N 52°01' E 003°57'3 5.4
2018-Feb-11 19:00N 52°00' E 004°01'3 6.7
2018-Feb-11 18:31N 51°58' E 004°04'1 1.5
2018-Feb-11 17:59N 51°58' E 004°03'0 0.0
2018-Feb-11 17:29N 51°58' E 004°03'0 0.0
2018-Feb-11 16:56N 51°58' E 004°03'0 0.0
2018-Feb-11 16:29N 51°58' E 004°03'0 0.0
2018-Feb-11 15:59N 51°58' E 004°03'0 0.0
2018-Feb-11 15:29N 51°58' E 004°03'0 0.0
2018-Feb-11 14:59N 51°58' E 004°03'0 0.0
2018-Feb-11 14:29N 51°58' E 004°03'0 0.0
2018-Feb-11 13:59N 51°58' E 004°03'0 0.0
2018-Feb-11 13:29N 51°58' E 004°03'0 0.0
2018-Feb-11 12:59N 51°58' E 004°03'0 0.0
2018-Feb-11 12:29N 51°58' E 004°03'0 0.0
2018-Feb-11 11:59N 51°58' E 004°03'0 0.0
2018-Feb-11 11:29N 51°58' E 004°03'0 0.0
2018-Feb-11 10:59N 51°58' E 004°03'0 0.0
2018-Feb-11 10:29N 51°58' E 004°03'0 0.0
2018-Feb-11 09:59N 51°58' E 004°03'0 0.0
2018-Feb-11 09:29N 51°58' E 004°03'0 0.0
2018-Feb-11 08:59N 51°58' E 004°03'0 0.0
2018-Feb-11 08:29N 51°58' E 004°03'0 0.0
2018-Feb-11 07:59N 51°58' E 004°03'0 0.0
2018-Feb-11 07:26N 51°58' E 004°03'0 0.0
2018-Feb-11 06:59N 51°58' E 004°03'0 0.0
2018-Feb-11 06:26N 51°58' E 004°03'0 0.0
2018-Feb-11 05:59N 51°58' E 004°03'0 0.0
2018-Feb-11 05:29N 51°58' E 004°03'0 0.0
2018-Feb-11 04:56N 51°58' E 004°03'0 0.0
2018-Feb-11 04:29N 51°58' E 004°03'0 0.0
2018-Feb-11 03:59N 51°58' E 004°03'0 0.0
2018-Feb-11 03:29N 51°58' E 004°03'0 0.0
2018-Feb-11 02:59N 51°58' E 004°03'0 0.0
2018-Feb-11 02:29N 51°58' E 004°03'0 0.0
2018-Feb-11 01:59N 51°58' E 004°03'0 0.0
2018-Feb-11 01:29N 51°58' E 004°03'0 0.0
2018-Feb-11 00:56N 51°58' E 004°03'0 0.0
2018-Feb-11 00:29N 51°58' E 004°03'0 0.0
2018-Feb-10 23:59N 51°58' E 004°03'0 0.0
2018-Feb-10 23:29N 51°58' E 004°03'0 0.0
2018-Feb-10 22:59N 51°58' E 004°03'0 0.0
2018-Feb-10 22:29N 51°58' E 004°03'0 0.0
2018-Feb-10 21:59N 51°58' E 004°03'0 0.0
2018-Feb-10 21:29N 51°58' E 004°03'0 0.0
2018-Feb-10 20:59N 51°58' E 004°03'0 0.0
2018-Feb-10 20:29N 51°58' E 004°03'0 0.0
2018-Feb-10 19:59N 51°58' E 004°03'0 0.0
2018-Feb-10 19:26N 51°58' E 004°03'0 0.0
2018-Feb-10 18:59N 51°58' E 004°03'0 0.0
2018-Feb-10 18:29N 51°58' E 004°03'0 0.0
2018-Feb-10 17:59N 51°58' E 004°03'0 0.0
2018-Feb-10 17:29N 51°58' E 004°03'0 0.0
2018-Feb-10 16:59N 51°58' E 004°03'0 0.0
2018-Feb-10 16:29N 51°58' E 004°03'0 0.0
2018-Feb-10 15:59N 51°58' E 004°03'0 0.0
2018-Feb-10 15:29N 51°58' E 004°03'0 0.0
2018-Feb-10 14:59N 51°58' E 004°03'0 0.0
2018-Feb-10 14:29N 51°58' E 004°03'0 0.0
2018-Feb-10 13:59N 51°58' E 004°03'0 0.0
2018-Feb-10 13:29N 51°58' E 004°03'0 0.0
2018-Feb-10 12:59N 51°58' E 004°03'0 0.0
2018-Feb-10 12:29N 51°58' E 004°03'0 0.0
2018-Feb-10 11:59N 51°58' E 004°03'0 0.0
2018-Feb-10 11:29N 51°58' E 004°03'0 0.0
2018-Feb-10 10:56N 51°58' E 004°03'0 0.0
2018-Feb-10 10:29N 51°58' E 004°03'0 0.0
2018-Feb-10 09:59N 51°58' E 004°03'0 0.0
2018-Feb-10 09:29N 51°58' E 004°03'0 0.0
2018-Feb-10 08:59N 51°58' E 004°03'0 0.0
2018-Feb-10 08:29N 51°58' E 004°03'0 0.0
2018-Feb-10 07:59N 51°58' E 004°03'0 0.0
2018-Feb-10 07:29N 51°58' E 004°03'0 0.0
2018-Feb-10 06:59N 51°58' E 004°03'0 0.0
2018-Feb-10 06:29N 51°58' E 004°03'0 0.0
2018-Feb-10 05:59N 51°58' E 004°03'0 0.0
2018-Feb-10 05:29N 51°58' E 004°03'0 0.0
2018-Feb-10 04:59N 51°58' E 004°03'0 0.0
2018-Feb-10 04:29N 51°58' E 004°03'0 0.0
2018-Feb-10 03:59N 51°58' E 004°03'0 0.0
2018-Feb-10 03:29N 51°58' E 004°03'0 0.0
2018-Feb-10 02:59N 51°58' E 004°03'0 0.0
2018-Feb-10 02:29N 51°58' E 004°03'0 0.0
2018-Feb-10 01:59N 51°58' E 004°03'0 0.0
2018-Feb-10 01:29N 51°58' E 004°03'0 0.0
2018-Feb-10 00:59N 51°58' E 004°03'0 0.0
2018-Feb-10 00:29N 51°58' E 004°03'0 0.0
2018-Feb-09 23:59N 51°58' E 004°03'0 0.0
2018-Feb-09 23:29N 51°58' E 004°03'0 0.0
2018-Feb-09 22:59N 51°58' E 004°03'0 0.0
2018-Feb-09 22:44N 51°58' E 004°03'0 0.0
2018-Feb-08 01:29N 51°58' E 004°03'0 0.0
2018-Feb-08 00:59N 51°58' E 004°03'0 0.0
2018-Feb-08 00:29N 51°58' E 004°03'0 0.0
2018-Feb-07 23:59N 51°58' E 004°03'0 0.0
2018-Feb-07 23:29N 51°58' E 004°03'0 0.0
2018-Feb-07 22:59N 51°58' E 004°03'0 0.0
2018-Feb-07 22:29N 51°58' E 004°03'0 0.0
2018-Feb-07 21:59N 51°58' E 004°03'0 0.0
2018-Feb-07 21:29N 51°58' E 004°03'0 0.0
2018-Feb-07 09:26N 51°58' E 004°03'  

Dump ship's entire track history